Magnate — H9ZN — position and weather

sailwx.info

Track history (hours):
 
Tides and Currents Weather Stations Pressure Air Temp Water Temp Dewpoint Dewpoint Depression Visibility Wind Speed Wind Dir Waves Ship Positions

Magnate

Last reported at 2015-Dec-21 09:33 UTC. Time now 2016-Feb-10 15:19 UTC.
Position N 36°14' W 009°50'.
Warning: this ship's position is 51 days out of date.

Length 140 m; draft 7 m.

Type: Cargo ship. MMSI: 357055000.

Date/timePositionNaut miles runAvg speedWind from/ knotsBaromVisibWave heightAir tempDewpointWater temp
2015-Dec-21 09:33N 36°14' W 009°50'1512.2
2015-Dec-21 08:18N 36°29' W 009°52'912.4
2015-Dec-21 07:33N 36°39' W 009°53'1312.5
2015-Dec-21 06:30N 36°52' W 009°55'1112.1
2015-Dec-21 05:33N 37°03' W 009°57'1313.1
2015-Dec-21 04:33N 37°16' W 009°58'1312.6
2015-Dec-21 03:30N 37°29' W 009°60'1212.4
2015-Dec-21 02:33N 37°41' W 010°01'1312.8
2015-Dec-21 01:33N 37°54' W 010°02'1211.6
2015-Dec-21 00:33N 38°05' W 010°03'1313.0
2015-Dec-20 23:33N 38°18' W 010°04'1312.6
2015-Dec-20 22:33N 38°31' W 010°05'1211.4
2015-Dec-20 21:30N 38°43' W 010°06'1212.8
2015-Dec-20 20:33N 38°55' W 010°06'1212.1
2015-Dec-20 19:33N 39°07' W 010°06'1212.3
2015-Dec-20 18:33N 39°19' W 010°06'1212.5
2015-Dec-20 17:33N 39°32' W 010°06'1211.6
2015-Dec-20 16:30N 39°44' W 010°07'1111.8
2015-Dec-20 15:33N 39°55' W 010°06'1312.6
2015-Dec-20 14:33N 40°08' W 010°06'1312.0
2015-Dec-20 13:30N 40°20' W 010°06'1112.1
2015-Dec-20 12:33N 40°32' W 010°06'1211.8
2015-Dec-20 11:30N 40°44' W 010°06'1212.3
2015-Dec-20 10:30N 40°56' W 010°06'1111.4
2015-Dec-20 09:33N 41°07' W 010°06'  
2015-Dec-16 13:31N 50°33' E 000°14'8 7.4
2015-Dec-16 12:31N 50°34' E 000°26'8 8.0
2015-Dec-16 11:33N 50°37' E 000°37'9 8.8
2015-Dec-16 10:33N 50°42' E 000°48'1010.1
2015-Dec-16 09:33N 50°48' E 001°01'1411.4
2015-Dec-16 08:17N 50°58' E 001°17'811.1
2015-Dec-16 07:33N 51°04' E 001°27'10 9.8
2015-Dec-16 06:33N 51°10' E 001°39'9 9.2
2015-Dec-16 05:33N 51°17' E 001°49'9 9.0
2015-Dec-16 04:33N 51°25' E 001°56'9 9.0
2015-Dec-16 03:33N 51°32' E 002°03'10 9.6
2015-Dec-16 02:33N 51°40' E 002°14'10311.4
2015-Dec-15 17:31N 52°59' E 004°01'1111.2
2015-Dec-15 16:33N 53°06' E 004°15'2812.0
2015-Dec-15 14:14N 53°29' E 004°40'913.2
2015-Dec-15 13:33N 53°32' E 004°54'1312.8
2015-Dec-15 12:33N 53°37' E 005°14'1211.7
2015-Dec-15 11:33N 53°40' E 005°33'1111.1
2015-Dec-15 10:33N 53°43' E 005°51'1110.7
2015-Dec-15 09:34N 53°47' E 006°08'1111.0
2015-Dec-15 08:31N 53°51' E 006°26'1111.6
2015-Dec-15 07:33N 53°53' E 006°45'1312.7
2015-Dec-15 06:33N 53°56' E 007°06'1313.2
2015-Dec-15 05:33N 53°60' E 007°28'1413.0
2015-Dec-15 04:29N 54°01' E 007°51'1213.1
2015-Dec-15 03:33N 54°01' E 008°12'1212.2
2015-Dec-15 02:33N 53°58' E 008°32'9 9.4
2015-Dec-15 01:33N 53°52' E 008°44'8 8.1
2015-Dec-15 00:33N 53°51' E 008°58'8 8.5
2015-Dec-14 23:33N 53°53' E 009°12'1110.7
2015-Dec-14 22:33N 53°45' E 009°24'1413.0
2015-Dec-14 21:27N 53°34' E 009°40'910.5
2015-Dec-14 20:33N 53°33' E 009°55'3 2.6
2015-Dec-14 19:33N 53°30' E 009°57'0 0.0
2015-Dec-14 18:33N 53°30' E 009°57'0 0.0
2015-Dec-14 17:33N 53°30' E 009°58'0 0.0
2015-Dec-14 16:33N 53°30' E 009°57'0 0.0
2015-Dec-14 15:33N 53°30' E 009°57'0 0.0
2015-Dec-14 14:33N 53°30' E 009°57'0 0.0
2015-Dec-14 13:33N 53°30' E 009°57'0 0.0
2015-Dec-14 12:33N 53°30' E 009°57'0 0.0
2015-Dec-14 11:33N 53°30' E 009°57'0 0.0
2015-Dec-14 10:33N 53°30' E 009°57'0 0.0
2015-Dec-14 09:33N 53°30' E 009°57'0 0.0
2015-Dec-14 08:33N 53°30' E 009°57'0 0.0
2015-Dec-14 07:33N 53°30' E 009°57'0 0.0
2015-Dec-14 06:30N 53°30' E 009°57'0 0.0
2015-Dec-14 05:33N 53°30' E 009°57'0 0.0
2015-Dec-14 04:33N 53°30' E 009°57'0 0.0
2015-Dec-14 03:32N 53°30' E 009°57'0 0.0
2015-Dec-14 02:32N 53°30' E 009°57'0 0.0
2015-Dec-14 01:29N 53°30' E 009°57'0 0.0
2015-Dec-14 00:32N 53°30' E 009°57'0 0.0
2015-Dec-13 23:32N 53°30' E 009°57'0 0.0
2015-Dec-13 22:32N 53°30' E 009°57'0 0.0
2015-Dec-13 21:32N 53°30' E 009°57'0 0.0
2015-Dec-13 20:32N 53°30' E 009°57'0 0.0
2015-Dec-13 19:32N 53°30' E 009°57'0 0.0
2015-Dec-13 18:32N 53°30' E 009°57'4 4.0
2015-Dec-13 17:33N 53°33' E 009°52'1110.6
2015-Dec-13 16:33N 53°36' E 009°35'1212.1
2015-Dec-13 15:33N 53°46' E 009°24'1211.6
2015-Dec-13 14:33N 53°53' E 009°08'9 8.7
2015-Dec-13 13:34N 53°50' E 008°53'9 9.2
2015-Dec-13 12:34N 53°55' E 008°40'1010.3
2015-Dec-13 11:33N 53°59' E 008°24'1111.0
2015-Dec-13 10:34N 53°60' E 008°05'4 4.4
2015-Dec-13 09:33N 54°03' E 008°09'0 0.1
2015-Dec-13 08:33N 54°03' E 008°09'0 0.0
2015-Dec-13 07:33N 54°03' E 008°09'0 0.1
2015-Dec-13 06:33N 54°03' E 008°09'0 0.1
2015-Dec-13 05:33N 54°03' E 008°09'0 0.0
2015-Dec-13 04:33N 54°03' E 008°09'0 0.0
2015-Dec-13 03:34N 54°03' E 008°09'0 0.1
2015-Dec-13 02:33N 54°03' E 008°09'0 0.2
2015-Dec-13 01:34N 54°03' E 008°09'0 0.0
2015-Dec-13 00:31N 54°03' E 008°09'0 0.0
2015-Dec-12 23:31N 54°03' E 008°09'0 0.0
2015-Dec-12 22:31N 54°03' E 008°09'0 0.0
2015-Dec-12 21:31N 54°03' E 008°09'0 0.0
2015-Dec-12 20:31N 54°03' E 008°09'0 0.0
2015-Dec-12 19:31N 54°03' E 008°09'0 0.0
2015-Dec-12 18:31N 54°03' E 008°09'0 0.0
2015-Dec-12 17:31N 54°03' E 008°09'0 0.0
2015-Dec-12 16:31N 54°03' E 008°09'0 0.0
2015-Dec-12 15:31N 54°03' E 008°09'0 0.1
2015-Dec-12 14:31N 54°03' E 008°09'0 0.1
2015-Dec-12 13:31N 54°03' E 008°09'0 0.0
2015-Dec-12 12:31N 54°03' E 008°09'0 0.0
2015-Dec-12 11:31N 54°03' E 008°09'0 0.0
2015-Dec-12 10:31N 54°03' E 008°09'0 0.0
2015-Dec-12 09:31N 54°03' E 008°09'0 0.0
2015-Dec-12 08:31N 54°03' E 008°09'0 0.0
2015-Dec-12 07:31N 54°03' E 008°09'0 0.0
2015-Dec-12 06:28N 54°03' E 008°09'0 0.0
2015-Dec-12 05:31N 54°03' E 008°09'0 0.0
2015-Dec-12 04:31N 54°03' E 008°09'0 0.0
2015-Dec-12 03:31N 54°03' E 008°09'0 0.0
2015-Dec-12 02:31N 54°03' E 008°09'0 0.0
2015-Dec-12 01:34N 54°03' E 008°09'0 0.0
2015-Dec-12 00:33N 54°03' E 008°09'0 0.0
2015-Dec-11 23:33N 54°03' E 008°09'0 0.1
2015-Dec-11 22:33N 54°03' E 008°09'0 0.1
2015-Dec-11 21:33N 54°03' E 008°08'0 0.0
2015-Dec-11 20:33N 54°03' E 008°08'0 0.0
2015-Dec-11 19:33N 54°03' E 008°08'0 0.0
2015-Dec-11 18:33N 54°03' E 008°08'0 0.0
2015-Dec-11 17:33N 54°03' E 008°08'0 0.1
2015-Dec-11 16:33N 54°03' E 008°08'0 0.0
2015-Dec-11 15:33N 54°03' E 008°08'0 0.0
2015-Dec-11 14:33N 54°03' E 008°08'0 0.0
2015-Dec-11 13:30N 54°03' E 008°08'0 0.0
2015-Dec-11 12:33N 54°03' E 008°08'0 0.0
2015-Dec-11 11:33N 54°03' E 008°08'0 0.0
2015-Dec-11 10:33N 54°03' E 008°08'0 0.0
2015-Dec-11 09:33N 54°03' E 008°08'  
Track history (hours):
 
Tides and Currents Weather Stations Pressure Air Temp Water Temp Dewpoint Dewpoint Depression Visibility Wind Speed Wind Dir Waves Ship Positions

Magnate

Last reported at 2015-Dec-21 09:33 UTC. Time now 2016-Feb-10 15:19 UTC.
Position N 36°14' W 009°50'.
Warning: this ship's position is 51 days out of date.

Length 140 m; draft 7 m.

Type: Cargo ship. MMSI: 357055000.

Date/timePositionNaut miles runAvg speedWind from/ knotsBaromVisibWave heightAir tempDewpointWater temp
2015-Dec-21 09:33N 36°14' W 009°50'1512.2
2015-Dec-21 08:18N 36°29' W 009°52'912.4
2015-Dec-21 07:33N 36°39' W 009°53'1312.5
2015-Dec-21 06:30N 36°52' W 009°55'1112.1
2015-Dec-21 05:33N 37°03' W 009°57'1313.1
2015-Dec-21 04:33N 37°16' W 009°58'1312.6
2015-Dec-21 03:30N 37°29' W 009°60'1212.4
2015-Dec-21 02:33N 37°41' W 010°01'1312.8
2015-Dec-21 01:33N 37°54' W 010°02'1211.6
2015-Dec-21 00:33N 38°05' W 010°03'1313.0
2015-Dec-20 23:33N 38°18' W 010°04'1312.6
2015-Dec-20 22:33N 38°31' W 010°05'1211.4
2015-Dec-20 21:30N 38°43' W 010°06'1212.8
2015-Dec-20 20:33N 38°55' W 010°06'1212.1
2015-Dec-20 19:33N 39°07' W 010°06'1212.3
2015-Dec-20 18:33N 39°19' W 010°06'1212.5
2015-Dec-20 17:33N 39°32' W 010°06'1211.6
2015-Dec-20 16:30N 39°44' W 010°07'1111.8
2015-Dec-20 15:33N 39°55' W 010°06'1312.6
2015-Dec-20 14:33N 40°08' W 010°06'1312.0
2015-Dec-20 13:30N 40°20' W 010°06'1112.1
2015-Dec-20 12:33N 40°32' W 010°06'1211.8
2015-Dec-20 11:30N 40°44' W 010°06'1212.3
2015-Dec-20 10:30N 40°56' W 010°06'1111.4
2015-Dec-20 09:33N 41°07' W 010°06'  
2015-Dec-16 13:31N 50°33' E 000°14'8 7.4
2015-Dec-16 12:31N 50°34' E 000°26'8 8.0
2015-Dec-16 11:33N 50°37' E 000°37'9 8.8
2015-Dec-16 10:33N 50°42' E 000°48'1010.1
2015-Dec-16 09:33N 50°48' E 001°01'1411.4
2015-Dec-16 08:17N 50°58' E 001°17'811.1
2015-Dec-16 07:33N 51°04' E 001°27'10 9.8
2015-Dec-16 06:33N 51°10' E 001°39'9 9.2
2015-Dec-16 05:33N 51°17' E 001°49'9 9.0
2015-Dec-16 04:33N 51°25' E 001°56'9 9.0
2015-Dec-16 03:33N 51°32' E 002°03'10 9.6
2015-Dec-16 02:33N 51°40' E 002°14'10311.4
2015-Dec-15 17:31N 52°59' E 004°01'1111.2
2015-Dec-15 16:33N 53°06' E 004°15'2812.0
2015-Dec-15 14:14N 53°29' E 004°40'913.2
2015-Dec-15 13:33N 53°32' E 004°54'1312.8
2015-Dec-15 12:33N 53°37' E 005°14'1211.7
2015-Dec-15 11:33N 53°40' E 005°33'1111.1
2015-Dec-15 10:33N 53°43' E 005°51'1110.7
2015-Dec-15 09:34N 53°47' E 006°08'1111.0
2015-Dec-15 08:31N 53°51' E 006°26'1111.6
2015-Dec-15 07:33N 53°53' E 006°45'1312.7
2015-Dec-15 06:33N 53°56' E 007°06'1313.2
2015-Dec-15 05:33N 53°60' E 007°28'1413.0
2015-Dec-15 04:29N 54°01' E 007°51'1213.1
2015-Dec-15 03:33N 54°01' E 008°12'1212.2
2015-Dec-15 02:33N 53°58' E 008°32'9 9.4
2015-Dec-15 01:33N 53°52' E 008°44'8 8.1
2015-Dec-15 00:33N 53°51' E 008°58'8 8.5
2015-Dec-14 23:33N 53°53' E 009°12'1110.7
2015-Dec-14 22:33N 53°45' E 009°24'1413.0
2015-Dec-14 21:27N 53°34' E 009°40'910.5
2015-Dec-14 20:33N 53°33' E 009°55'3 2.6
2015-Dec-14 19:33N 53°30' E 009°57'0 0.0
2015-Dec-14 18:33N 53°30' E 009°57'0 0.0
2015-Dec-14 17:33N 53°30' E 009°58'0 0.0
2015-Dec-14 16:33N 53°30' E 009°57'0 0.0
2015-Dec-14 15:33N 53°30' E 009°57'0 0.0
2015-Dec-14 14:33N 53°30' E 009°57'0 0.0
2015-Dec-14 13:33N 53°30' E 009°57'0 0.0
2015-Dec-14 12:33N 53°30' E 009°57'0 0.0
2015-Dec-14 11:33N 53°30' E 009°57'0 0.0
2015-Dec-14 10:33N 53°30' E 009°57'0 0.0
2015-Dec-14 09:33N 53°30' E 009°57'0 0.0
2015-Dec-14 08:33N 53°30' E 009°57'0 0.0
2015-Dec-14 07:33N 53°30' E 009°57'0 0.0
2015-Dec-14 06:30N 53°30' E 009°57'0 0.0
2015-Dec-14 05:33N 53°30' E 009°57'0 0.0
2015-Dec-14 04:33N 53°30' E 009°57'0 0.0
2015-Dec-14 03:32N 53°30' E 009°57'0 0.0
2015-Dec-14 02:32N 53°30' E 009°57'0 0.0
2015-Dec-14 01:29N 53°30' E 009°57'0 0.0
2015-Dec-14 00:32N 53°30' E 009°57'0 0.0
2015-Dec-13 23:32N 53°30' E 009°57'0 0.0
2015-Dec-13 22:32N 53°30' E 009°57'0 0.0
2015-Dec-13 21:32N 53°30' E 009°57'0 0.0
2015-Dec-13 20:32N 53°30' E 009°57'0 0.0
2015-Dec-13 19:32N 53°30' E 009°57'0 0.0
2015-Dec-13 18:32N 53°30' E 009°57'4 4.0
2015-Dec-13 17:33N 53°33' E 009°52'1110.6
2015-Dec-13 16:33N 53°36' E 009°35'1212.1
2015-Dec-13 15:33N 53°46' E 009°24'1211.6
2015-Dec-13 14:33N 53°53' E 009°08'9 8.7
2015-Dec-13 13:34N 53°50' E 008°53'9 9.2
2015-Dec-13 12:34N 53°55' E 008°40'1010.3
2015-Dec-13 11:33N 53°59' E 008°24'1111.0
2015-Dec-13 10:34N 53°60' E 008°05'4 4.4
2015-Dec-13 09:33N 54°03' E 008°09'0 0.1
2015-Dec-13 08:33N 54°03' E 008°09'0 0.0
2015-Dec-13 07:33N 54°03' E 008°09'0 0.1
2015-Dec-13 06:33N 54°03' E 008°09'0 0.1
2015-Dec-13 05:33N 54°03' E 008°09'0 0.0
2015-Dec-13 04:33N 54°03' E 008°09'0 0.0
2015-Dec-13 03:34N 54°03' E 008°09'0 0.1
2015-Dec-13 02:33N 54°03' E 008°09'0 0.2
2015-Dec-13 01:34N 54°03' E 008°09'0 0.0
2015-Dec-13 00:31N 54°03' E 008°09'0 0.0
2015-Dec-12 23:31N 54°03' E 008°09'0 0.0
2015-Dec-12 22:31N 54°03' E 008°09'0 0.0
2015-Dec-12 21:31N 54°03' E 008°09'0 0.0
2015-Dec-12 20:31N 54°03' E 008°09'0 0.0
2015-Dec-12 19:31N 54°03' E 008°09'0 0.0
2015-Dec-12 18:31N 54°03' E 008°09'0 0.0
2015-Dec-12 17:31N 54°03' E 008°09'0 0.0
2015-Dec-12 16:31N 54°03' E 008°09'0 0.0
2015-Dec-12 15:31N 54°03' E 008°09'0 0.1
2015-Dec-12 14:31N 54°03' E 008°09'0 0.1
2015-Dec-12 13:31N 54°03' E 008°09'0 0.0
2015-Dec-12 12:31N 54°03' E 008°09'0 0.0
2015-Dec-12 11:31N 54°03' E 008°09'0 0.0
2015-Dec-12 10:31N 54°03' E 008°09'0 0.0
2015-Dec-12 09:31N 54°03' E 008°09'0 0.0
2015-Dec-12 08:31N 54°03' E 008°09'0 0.0
2015-Dec-12 07:31N 54°03' E 008°09'0 0.0
2015-Dec-12 06:28N 54°03' E 008°09'0 0.0
2015-Dec-12 05:31N 54°03' E 008°09'0 0.0
2015-Dec-12 04:31N 54°03' E 008°09'0 0.0
2015-Dec-12 03:31N 54°03' E 008°09'0 0.0
2015-Dec-12 02:31N 54°03' E 008°09'0 0.0
2015-Dec-12 01:34N 54°03' E 008°09'0 0.0
2015-Dec-12 00:33N 54°03' E 008°09'0 0.0
2015-Dec-11 23:33N 54°03' E 008°09'0 0.1
2015-Dec-11 22:33N 54°03' E 008°09'0 0.1
2015-Dec-11 21:33N 54°03' E 008°08'0 0.0
2015-Dec-11 20:33N 54°03' E 008°08'0 0.0
2015-Dec-11 19:33N 54°03' E 008°08'0 0.0
2015-Dec-11 18:33N 54°03' E 008°08'0 0.0
2015-Dec-11 17:33N 54°03' E 008°08'0 0.1
2015-Dec-11 16:33N 54°03' E 008°08'0 0.0
2015-Dec-11 15:33N 54°03' E 008°08'0 0.0
2015-Dec-11 14:33N 54°03' E 008°08'0 0.0
2015-Dec-11 13:30N 54°03' E 008°08'0 0.0
2015-Dec-11 12:33N 54°03' E 008°08'0 0.0
2015-Dec-11 11:33N 54°03' E 008°08'0 0.0
2015-Dec-11 10:33N 54°03' E 008°08'0 0.0
2015-Dec-11 09:33N 54°03' E 008°08'  

Dump ship's entire track history